Sin Querer Tres — EA3126 — position and weather

sailwx.info

Track history (hours):
 
Tides and Currents Weather Stations Pressure Air Temp Water Temp Dewpoint Dewpoint Depression Visibility Wind Speed Wind Dir Waves Ship Positions

Sin Querer Tres

Last reported at 2018-Jul-26 03:57 UTC. Time now 2018-Aug-21 04:20 UTC.
Position N 43°39' W 006°02'.
Warning: this ship's position is 26 days out of date.

Length 28 m.

Type: Fishing. MMSI: 224046190.

Date/timePositionNaut miles runAvg speedWind from/ knotsBaromVisibWave heightAir tempDewpointWater temp
2018-Jul-26 03:57N 43°39' W 006°02'410.0
2018-Jul-26 03:30N 43°40' W 005°56'510.2
2018-Jul-26 03:00N 43°41' W 005°49'510.2
2018-Jul-26 02:29N 43°39' W 005°42'510.9
2018-Jul-26 02:00N 43°38' W 005°35'2 3.8
2018-Jul-26 01:31N 43°36' W 005°34'510.3
2018-Jul-26 01:00N 43°36' W 005°27'710.5
2018-Jul-26 00:22N 43°34' W 005°17'1 0.2
2018-Jul-25 17:38N 43°35' W 005°16'4 9.4
2018-Jul-25 17:11N 43°35' W 005°22'6 9.7
2018-Jul-25 16:33N 43°36' W 005°30'1 9.5
2018-Jul-25 16:29N 43°36' W 005°31'8 2.4
2018-Jul-25 13:00N 43°33' W 005°42'0 0.0
2018-Jul-25 12:30N 43°33' W 005°42'0 0.0
2018-Jul-25 12:00N 43°33' W 005°42'0 0.0
2018-Jul-25 11:30N 43°33' W 005°42'0 0.0
2018-Jul-25 11:00N 43°33' W 005°42'0 0.0
2018-Jul-25 10:30N 43°33' W 005°42'0 0.0
2018-Jul-25 10:00N 43°33' W 005°42'0 0.0
2018-Jul-25 09:30N 43°33' W 005°42'0 0.0
2018-Jul-25 09:00N 43°33' W 005°42'0 0.2
2018-Jul-25 08:30N 43°33' W 005°42'0 0.0
2018-Jul-25 08:00N 43°33' W 005°42'0 0.1
2018-Jul-25 07:30N 43°33' W 005°42'0 0.0
2018-Jul-25 07:00N 43°33' W 005°42'1 1.4
2018-Jul-25 06:30N 43°34' W 005°41'510.6
2018-Jul-25 06:00N 43°35' W 005°34'610.6
2018-Jul-25 05:26N 43°34' W 005°25'611.0
2018-Jul-25 04:53N 43°34' W 005°17'1 0.1
2018-Jul-24 17:40N 43°34' W 005°15'6 9.7
2018-Jul-24 17:05N 43°35' W 005°23'2 9.6
2018-Jul-24 16:56N 43°35' W 005°25'12 4.1
2018-Jul-24 13:54N 43°33' W 005°42'0 0.0
2018-Jul-24 13:30N 43°33' W 005°42'2 4.4
2018-Jul-24 13:00N 43°35' W 005°40'6 9.7
2018-Jul-24 12:22N 43°39' W 005°47'7 9.5
2018-Jul-24 11:39N 43°41' W 005°56'210.2
2018-Jul-24 11:30N 43°40' W 005°58'  
Track history (hours):
 
Tides and Currents Weather Stations Pressure Air Temp Water Temp Dewpoint Dewpoint Depression Visibility Wind Speed Wind Dir Waves Ship Positions

Sin Querer Tres

Last reported at 2018-Jul-26 03:57 UTC. Time now 2018-Aug-21 04:20 UTC.
Position N 43°39' W 006°02'.
Warning: this ship's position is 26 days out of date.

Length 28 m.

Type: Fishing. MMSI: 224046190.

Date/timePositionNaut miles runAvg speedWind from/ knotsBaromVisibWave heightAir tempDewpointWater temp
2018-Jul-26 03:57N 43°39' W 006°02'410.0
2018-Jul-26 03:30N 43°40' W 005°56'510.2
2018-Jul-26 03:00N 43°41' W 005°49'510.2
2018-Jul-26 02:29N 43°39' W 005°42'510.9
2018-Jul-26 02:00N 43°38' W 005°35'2 3.8
2018-Jul-26 01:31N 43°36' W 005°34'510.3
2018-Jul-26 01:00N 43°36' W 005°27'710.5
2018-Jul-26 00:22N 43°34' W 005°17'1 0.2
2018-Jul-25 17:38N 43°35' W 005°16'4 9.4
2018-Jul-25 17:11N 43°35' W 005°22'6 9.7
2018-Jul-25 16:33N 43°36' W 005°30'1 9.5
2018-Jul-25 16:29N 43°36' W 005°31'8 2.4
2018-Jul-25 13:00N 43°33' W 005°42'0 0.0
2018-Jul-25 12:30N 43°33' W 005°42'0 0.0
2018-Jul-25 12:00N 43°33' W 005°42'0 0.0
2018-Jul-25 11:30N 43°33' W 005°42'0 0.0
2018-Jul-25 11:00N 43°33' W 005°42'0 0.0
2018-Jul-25 10:30N 43°33' W 005°42'0 0.0
2018-Jul-25 10:00N 43°33' W 005°42'0 0.0
2018-Jul-25 09:30N 43°33' W 005°42'0 0.0
2018-Jul-25 09:00N 43°33' W 005°42'0 0.2
2018-Jul-25 08:30N 43°33' W 005°42'0 0.0
2018-Jul-25 08:00N 43°33' W 005°42'0 0.1
2018-Jul-25 07:30N 43°33' W 005°42'0 0.0
2018-Jul-25 07:00N 43°33' W 005°42'1 1.4
2018-Jul-25 06:30N 43°34' W 005°41'510.6
2018-Jul-25 06:00N 43°35' W 005°34'610.6
2018-Jul-25 05:26N 43°34' W 005°25'611.0
2018-Jul-25 04:53N 43°34' W 005°17'1 0.1
2018-Jul-24 17:40N 43°34' W 005°15'6 9.7
2018-Jul-24 17:05N 43°35' W 005°23'2 9.6
2018-Jul-24 16:56N 43°35' W 005°25'12 4.1
2018-Jul-24 13:54N 43°33' W 005°42'0 0.0
2018-Jul-24 13:30N 43°33' W 005°42'2 4.4
2018-Jul-24 13:00N 43°35' W 005°40'6 9.7
2018-Jul-24 12:22N 43°39' W 005°47'7 9.5
2018-Jul-24 11:39N 43°41' W 005°56'210.2
2018-Jul-24 11:30N 43°40' W 005°58'  

Dump ship's entire track history